createdAt,value
2018-12-14T00:02:38.432Z,19.87
2018-12-14T00:07:35.190Z,21.13
2018-12-14T00:12:30.984Z,20.90
2018-12-14T00:17:26.771Z,21.37
2018-12-14T00:22:22.525Z,22.70
2018-12-14T00:27:18.553Z,18.83
2018-12-14T00:32:14.911Z,19.37
2018-12-14T00:37:10.820Z,18.40
2018-12-14T00:42:06.610Z,21.90
2018-12-14T00:47:02.381Z,22.60
2018-12-14T00:51:58.221Z,19.23
2018-12-14T00:56:53.971Z,21.17
2018-12-14T01:01:49.790Z,19.63
2018-12-14T01:06:45.572Z,21.90
2018-12-14T01:11:41.470Z,20.40
2018-12-14T01:16:37.258Z,17.67
2018-12-14T01:21:33.025Z,18.73
2018-12-14T01:26:28.836Z,21.67
2018-12-14T01:31:24.661Z,18.00
2018-12-14T01:36:20.435Z,19.77
2018-12-14T01:41:16.372Z,19.67
2018-12-14T01:46:12.146Z,19.97
2018-12-14T01:51:08.044Z,19.00
2018-12-14T01:56:03.859Z,21.00
2018-12-14T02:00:59.638Z,17.90
2018-12-14T02:05:55.404Z,20.70
2018-12-14T02:10:51.183Z,19.83
2018-12-14T02:15:46.977Z,20.07
2018-12-14T02:20:42.755Z,19.33
2018-12-14T02:25:38.518Z,18.27
2018-12-14T02:30:41.511Z,18.43
2018-12-14T02:35:37.289Z,20.90
2018-12-14T02:40:33.071Z,22.73
2018-12-14T02:45:28.949Z,19.30
2018-12-14T02:50:24.701Z,19.60
2018-12-14T02:55:20.496Z,20.00
2018-12-14T03:00:16.282Z,18.83
2018-12-14T03:05:12.278Z,17.43
2018-12-14T03:10:08.114Z,18.23
2018-12-14T03:15:04.215Z,17.73
2018-12-14T03:20:00.236Z,19.57
2018-12-14T03:24:56.277Z,17.83
2018-12-14T03:29:52.163Z,17.97
2018-12-14T03:34:47.975Z,20.33
2018-12-14T03:39:43.797Z,16.80
2018-12-14T03:44:39.567Z,17.63
2018-12-14T03:49:35.389Z,19.60
2018-12-14T03:54:31.178Z,19.07
2018-12-14T03:59:27.006Z,18.37
2018-12-14T04:04:22.832Z,19.83
2018-12-14T04:09:18.615Z,18.93
2018-12-14T04:14:14.436Z,18.10
2018-12-14T04:19:10.223Z,18.97
2018-12-14T04:24:06.127Z,17.20
2018-12-14T04:29:02.048Z,20.30
2018-12-14T04:33:57.871Z,17.90
2018-12-14T04:38:53.645Z,18.07
2018-12-14T04:43:49.419Z,18.33
2018-12-14T04:48:45.185Z,15.77
2018-12-14T04:53:41.032Z,18.70
2018-12-14T04:58:36.898Z,17.83
2018-12-14T05:03:32.672Z,15.73
2018-12-14T05:08:28.441Z,18.53
2018-12-14T05:13:24.231Z,18.97
2018-12-14T05:18:20.051Z,23.33
2018-12-14T05:23:15.864Z,31.13
2018-12-14T05:28:11.948Z,31.47
2018-12-14T05:33:07.672Z,36.23
2018-12-14T05:38:03.491Z,26.07
2018-12-14T05:43:02.599Z,20.87
2018-12-14T05:47:57.110Z,19.43
2018-12-14T05:52:52.915Z,18.90
2018-12-14T05:57:49.678Z,18.80
2018-12-14T06:02:45.436Z,18.10
2018-12-14T06:07:41.471Z,20.53
2018-12-14T06:12:37.271Z,20.30
2018-12-14T06:17:34.129Z,17.97
2018-12-14T06:22:29.896Z,20.00
2018-12-14T06:27:25.660Z,19.43
2018-12-14T06:32:21.541Z,18.43
2018-12-14T06:37:17.602Z,18.13
2018-12-14T06:42:13.826Z,20.50
2018-12-14T06:47:09.618Z,21.30
2018-12-14T06:52:05.462Z,19.80
2018-12-14T06:57:01.249Z,19.00
2018-12-14T07:01:57.028Z,21.27
2018-12-14T07:06:52.800Z,26.33
2018-12-14T07:11:48.620Z,20.50
2018-12-14T07:16:44.438Z,20.77
2018-12-14T07:21:40.294Z,23.13
2018-12-14T07:26:36.361Z,25.13
2018-12-14T07:31:32.623Z,23.40
2018-12-14T07:36:28.542Z,25.90
2018-12-14T07:41:24.351Z,20.53
2018-12-14T07:46:20.581Z,20.43
2018-12-14T07:51:16.516Z,27.90
2018-12-14T07:56:13.775Z,29.60
2018-12-14T08:01:09.611Z,34.27
2018-12-14T08:06:05.403Z,40.13
2018-12-14T08:11:01.364Z,21.27
2018-12-14T08:15:57.238Z,22.93
2018-12-14T08:20:53.040Z,20.30
2018-12-14T08:25:48.858Z,22.53
2018-12-14T08:30:44.675Z,24.50
2018-12-14T08:35:40.459Z,28.40
2018-12-14T08:40:36.286Z,26.13
2018-12-14T08:45:32.194Z,23.20
2018-12-14T08:50:27.966Z,21.23
2018-12-14T08:55:23.788Z,20.63
2018-12-14T09:00:19.614Z,19.23
2018-12-14T09:05:15.430Z,22.47
2018-12-14T09:10:11.296Z,21.40
2018-12-14T09:15:07.090Z,21.70
2018-12-14T09:20:03.354Z,18.83
2018-12-14T09:24:59.192Z,17.47
2018-12-14T09:29:54.972Z,21.10
2018-12-14T09:34:50.816Z,18.93
2018-12-14T09:39:46.630Z,22.07
2018-12-14T09:44:42.378Z,21.03
2018-12-14T09:49:38.136Z,19.53
2018-12-14T09:54:33.960Z,20.73
2018-12-14T09:59:29.847Z,20.97
2018-12-14T10:04:25.651Z,19.33
2018-12-14T10:09:21.474Z,21.37
2018-12-14T10:14:17.247Z,18.93
2018-12-14T10:19:13.176Z,21.27
2018-12-14T10:24:08.967Z,19.77
2018-12-14T10:29:04.749Z,22.27
2018-12-14T10:34:00.666Z,18.83
2018-12-14T10:38:56.594Z,20.17
2018-12-14T10:43:52.391Z,18.87
2018-12-14T10:48:48.196Z,18.80
2018-12-14T10:53:43.982Z,19.30
2018-12-14T10:58:39.807Z,18.93
2018-12-14T11:03:35.640Z,20.33
2018-12-14T11:08:31.484Z,20.20
2018-12-14T11:13:27.254Z,21.83
2018-12-14T11:18:23.049Z,18.97
2018-12-14T11:23:18.839Z,17.83
2018-12-14T11:28:14.613Z,19.50
2018-12-14T11:33:10.540Z,20.37
2018-12-14T11:38:06.330Z,17.57
2018-12-14T11:43:02.156Z,18.40
2018-12-14T11:47:57.967Z,16.10
2018-12-14T11:52:53.784Z,16.10
2018-12-14T11:57:49.577Z,15.70
2018-12-14T12:02:45.365Z,18.07
2018-12-14T12:07:42.389Z,17.00
2018-12-14T12:12:38.270Z,13.60
2018-12-14T12:17:35.366Z,15.00
2018-12-14T12:22:31.136Z,15.80
2018-12-14T12:27:27.185Z,14.70
2018-12-14T12:32:23.092Z,13.93
2018-12-14T12:37:18.912Z,16.37
2018-12-14T12:42:14.704Z,15.57
2018-12-14T12:47:10.482Z,13.83
2018-12-14T12:52:06.279Z,15.40
2018-12-14T12:57:02.090Z,12.37
2018-12-14T13:01:58.278Z,12.53
2018-12-14T13:06:54.097Z,14.37
2018-12-14T13:11:49.878Z,15.67
2018-12-14T13:16:45.664Z,12.23
2018-12-14T13:21:41.442Z,11.83
2018-12-14T13:26:37.223Z,22.17
2018-12-14T13:31:33.025Z,14.47
2018-12-14T13:36:28.854Z,15.00
2018-12-14T13:41:24.658Z,15.07
2018-12-14T13:46:20.412Z,14.70
2018-12-14T13:51:16.256Z,15.17
2018-12-14T13:56:12.444Z,15.80
2018-12-14T14:01:08.244Z,14.30
2018-12-14T14:06:04.028Z,18.60
2018-12-14T14:10:59.818Z,23.57
2018-12-14T14:15:55.580Z,16.57
2018-12-14T14:20:51.384Z,15.77
2018-12-14T14:25:47.538Z,16.07
2018-12-14T14:30:43.289Z,15.30
2018-12-14T14:35:39.109Z,14.93
2018-12-14T14:40:34.937Z,13.43
2018-12-14T14:45:30.720Z,15.77
2018-12-14T14:50:26.504Z,13.80
2018-12-14T14:55:22.326Z,14.63
2018-12-14T15:00:18.137Z,12.33
2018-12-14T15:05:13.963Z,14.40
2018-12-14T15:10:09.780Z,14.60
2018-12-14T15:15:06.840Z,13.03
2018-12-14T15:20:03.184Z,14.17
2018-12-14T15:24:58.974Z,15.40
2018-12-14T15:29:54.873Z,13.07
2018-12-14T15:34:50.702Z,11.97
2018-12-14T15:39:46.460Z,13.50
2018-12-14T15:44:42.268Z,9.57
2018-12-14T15:49:38.080Z,9.87
2018-12-14T15:54:33.880Z,13.90
2018-12-14T15:59:29.684Z,12.37
2018-12-14T16:04:25.451Z,10.90
2018-12-14T16:09:21.265Z,11.00
2018-12-14T16:14:17.293Z,12.40
2018-12-14T16:19:13.127Z,12.53
2018-12-14T16:24:08.947Z,13.43
2018-12-14T16:29:04.867Z,13.60
2018-12-14T16:34:00.794Z,11.37
2018-12-14T16:38:56.832Z,11.03
2018-12-14T16:43:52.646Z,12.37
2018-12-14T16:48:48.412Z,10.43
2018-12-14T16:53:50.402Z,14.70
2018-12-14T16:58:46.196Z,13.00
2018-12-14T17:03:41.980Z,11.17
2018-12-14T17:08:37.784Z,9.87
2018-12-14T17:13:33.544Z,8.70
2018-12-14T17:18:29.342Z,10.97
2018-12-14T17:23:25.124Z,15.43
2018-12-14T17:28:20.929Z,12.20
2018-12-14T17:33:16.702Z,11.83
2018-12-14T17:38:12.572Z,10.30
2018-12-14T17:43:08.429Z,10.73
2018-12-14T17:48:04.201Z,10.27
2018-12-14T17:53:00.018Z,9.37
2018-12-14T17:57:55.842Z,8.80
2018-12-14T18:02:51.642Z,7.17
2018-12-14T18:07:47.454Z,7.77
2018-12-14T18:12:43.220Z,11.93
2018-12-14T18:17:39.067Z,9.40
2018-12-14T18:22:35.197Z,9.23
2018-12-14T18:27:31.007Z,8.90
2018-12-14T18:32:27.147Z,10.67
2018-12-14T18:37:22.910Z,8.93
2018-12-14T18:42:18.730Z,8.73
2018-12-14T18:47:15.483Z,8.17
2018-12-14T18:52:11.303Z,9.53
2018-12-14T18:57:07.108Z,11.10
2018-12-14T19:02:02.886Z,12.47
2018-12-14T19:06:59.006Z,10.80
2018-12-14T19:11:54.786Z,9.27
2018-12-14T19:16:50.578Z,10.90
2018-12-14T19:21:46.350Z,12.07
2018-12-14T19:26:42.170Z,11.20
2018-12-14T19:31:38.037Z,11.23
2018-12-14T19:36:33.833Z,9.43
2018-12-14T19:41:29.613Z,11.00
2018-12-14T19:46:25.405Z,12.40
2018-12-14T19:51:21.178Z,12.00
2018-12-14T19:56:16.974Z,11.70
2018-12-14T20:01:12.872Z,12.23
2018-12-14T20:06:08.649Z,14.13
2018-12-14T20:11:04.478Z,14.00
2018-12-14T20:16:00.273Z,12.73
2018-12-14T20:20:57.109Z,11.50
2018-12-14T20:25:53.060Z,10.60
2018-12-14T20:30:48.858Z,11.53
2018-12-14T20:35:44.622Z,13.03
2018-12-14T20:40:40.526Z,13.00
2018-12-14T20:45:36.318Z,10.83
2018-12-14T20:50:32.139Z,9.13
2018-12-14T20:55:27.969Z,8.80
2018-12-14T21:00:23.737Z,9.77
2018-12-14T21:05:19.549Z,10.00
2018-12-14T21:10:16.381Z,10.47
2018-12-14T21:15:12.168Z,11.57
2018-12-14T21:20:08.065Z,12.10
2018-12-14T21:25:04.082Z,14.77
2018-12-14T21:29:59.883Z,13.33
2018-12-14T21:34:55.632Z,17.03
2018-12-14T21:39:51.451Z,14.57
2018-12-14T21:44:47.254Z,12.00
2018-12-14T21:49:43.057Z,14.60
2018-12-14T21:54:38.987Z,12.63
2018-12-14T21:59:34.840Z,13.00
2018-12-14T22:04:31.172Z,13.50
2018-12-14T22:09:27.122Z,13.83
2018-12-14T22:14:22.933Z,13.20
2018-12-14T22:19:18.697Z,11.07
2018-12-14T22:24:14.500Z,10.70
2018-12-14T22:29:10.270Z,11.63
2018-12-14T22:34:06.076Z,12.30
2018-12-14T22:39:02.139Z,13.10
2018-12-14T22:43:57.926Z,13.33
2018-12-14T22:48:53.702Z,14.40
2018-12-14T22:53:49.509Z,15.97
2018-12-14T22:58:45.371Z,14.63
2018-12-14T23:03:41.471Z,18.40
2018-12-14T23:08:37.229Z,15.40
2018-12-14T23:13:33.034Z,15.53
2018-12-14T23:18:28.800Z,16.03
2018-12-14T23:23:24.596Z,17.87
2018-12-14T23:28:20.364Z,18.27
2018-12-14T23:33:16.169Z,16.73
2018-12-14T23:38:11.945Z,18.37
2018-12-14T23:43:07.685Z,16.60
2018-12-14T23:48:03.478Z,18.10
2018-12-14T23:52:59.318Z,20.50
2018-12-14T23:57:55.120Z,18.17
